sensor_id;sensor_type;location;lat;lon;timestamp;pressure;altitude;pressure_sealevel;temperature;humidity
61573;BME280;47465;43.094;12.434;2023-02-11T00:01:51;100516.44;;;-0.65;57.45
61573;BME280;47465;43.094;12.434;2023-02-11T00:04:17;100501.88;;;-0.97;57.71
61573;BME280;47465;43.094;12.434;2023-02-11T00:06:43;100532.56;;;-0.93;58.63
61573;BME280;47465;43.094;12.434;2023-02-11T00:09:09;100511.41;;;-1.17;60.20
61573;BME280;47465;43.094;12.434;2023-02-11T00:11:35;100508.94;;;-1.32;61.12
61573;BME280;47465;43.094;12.434;2023-02-11T00:14:05;100540.13;;;-1.17;60.56
61573;BME280;47465;43.094;12.434;2023-02-11T00:16:32;100517.97;;;-1.43;61.13
61573;BME280;47465;43.094;12.434;2023-02-11T00:19:00;100527.44;;;-1.45;61.70
61573;BME280;47465;43.094;12.434;2023-02-11T00:21:26;100537.69;;;-1.48;63.06
61573;BME280;47465;43.094;12.434;2023-02-11T00:23:52;100517.13;;;-1.60;63.08
61573;BME280;47465;43.094;12.434;2023-02-11T00:26:24;100523.91;;;-1.63;64.23
61573;BME280;47465;43.094;12.434;2023-02-11T00:28:51;100497.41;;;-1.89;63.43
61573;BME280;47465;43.094;12.434;2023-02-11T00:31:21;100513.53;;;-1.80;64.06
61573;BME280;47465;43.094;12.434;2023-02-11T00:33:47;100522.91;;;-1.83;64.36
61573;BME280;47465;43.094;12.434;2023-02-11T00:36:16;100537.38;;;-1.72;64.42
61573;BME280;47465;43.094;12.434;2023-02-11T00:38:43;100511.50;;;-1.86;64.43
61573;BME280;47465;43.094;12.434;2023-02-11T00:41:09;100529.22;;;-1.78;63.37
61573;BME280;47465;43.094;12.434;2023-02-11T00:43:35;100536.16;;;-1.79;64.68
61573;BME280;47465;43.094;12.434;2023-02-11T00:46:00;100511.69;;;-1.99;65.22
61573;BME280;47465;43.094;12.434;2023-02-11T00:48:28;100542.31;;;-1.95;65.20
61573;BME280;47465;43.094;12.434;2023-02-11T00:50:54;100547.31;;;-1.99;65.95
61573;BME280;47465;43.094;12.434;2023-02-11T00:53:19;100519.84;;;-2.09;65.47
61573;BME280;47465;43.094;12.434;2023-02-11T00:55:45;100542.75;;;-2.03;65.73
61573;BME280;47465;43.094;12.434;2023-02-11T00:58:11;100552.66;;;-2.13;66.03
61573;BME280;47465;43.094;12.434;2023-02-11T01:00:37;100530.84;;;-2.15;64.83
61573;BME280;47465;43.094;12.434;2023-02-11T01:03:03;100539.06;;;-2.07;65.55
61573;BME280;47465;43.094;12.434;2023-02-11T01:05:30;100544.78;;;-2.14;64.99
61573;BME280;47465;43.094;12.434;2023-02-11T01:07:56;100524.78;;;-2.32;66.43
61573;BME280;47465;43.094;12.434;2023-02-11T01:10:22;100551.63;;;-2.33;65.87
61573;BME280;47465;43.094;12.434;2023-02-11T01:12:48;100525.25;;;-2.39;65.60
61573;BME280;47465;43.094;12.434;2023-02-11T01:15:15;100506.94;;;-2.57;66.01
61573;BME280;47465;43.094;12.434;2023-02-11T01:17:41;100535.25;;;-2.30;65.34
61573;BME280;47465;43.094;12.434;2023-02-11T01:20:11;100516.81;;;-2.51;65.60
61573;BME280;47465;43.094;12.434;2023-02-11T01:22:39;100516.94;;;-2.48;66.54
61573;BME280;47465;43.094;12.434;2023-02-11T01:25:06;100510.63;;;-2.53;66.71
61573;BME280;47465;43.094;12.434;2023-02-11T01:27:32;100517.53;;;-2.54;67.42
61573;BME280;47465;43.094;12.434;2023-02-11T01:29:58;100516.28;;;-2.60;68.41
61573;BME280;47465;43.094;12.434;2023-02-11T01:32:24;100519.16;;;-2.56;67.18
61573;BME280;47465;43.094;12.434;2023-02-11T01:34:50;100513.44;;;-2.65;67.23
61573;BME280;47465;43.094;12.434;2023-02-11T01:37:16;100504.75;;;-2.65;67.93
61573;BME280;47465;43.094;12.434;2023-02-11T01:39:44;100513.88;;;-2.57;67.79
61573;BME280;47465;43.094;12.434;2023-02-11T01:42:10;100489.84;;;-2.68;67.94
61573;BME280;47465;43.094;12.434;2023-02-11T01:44:40;100520.78;;;-2.41;67.13
61573;BME280;47465;43.094;12.434;2023-02-11T01:47:06;100509.84;;;-2.34;66.95
61573;BME280;47465;43.094;12.434;2023-02-11T01:49:33;100491.47;;;-2.37;66.58
61573;BME280;47465;43.094;12.434;2023-02-11T01:52:03;100505.38;;;-2.37;67.23
61573;BME280;47465;43.094;12.434;2023-02-11T01:54:32;100477.72;;;-2.51;67.00
61573;BME280;47465;43.094;12.434;2023-02-11T01:57:39;100492.84;;;-2.44;67.28
61573;BME280;47465;43.094;12.434;2023-02-11T02:00:12;100488.94;;;-2.52;67.82
61573;BME280;47465;43.094;12.434;2023-02-11T02:02:45;100490.50;;;-2.56;68.23
61573;BME280;47465;43.094;12.434;2023-02-11T02:05:21;100481.63;;;-2.59;69.65
61573;BME280;47465;43.094;12.434;2023-02-11T02:07:55;100479.44;;;-2.68;69.31
61573;BME280;47465;43.094;12.434;2023-02-11T02:10:25;100469.81;;;-2.69;69.07
61573;BME280;47465;43.094;12.434;2023-02-11T02:12:53;100479.19;;;-2.56;69.18
61573;BME280;47465;43.094;12.434;2023-02-11T02:15:28;100469.59;;;-2.57;69.14
61573;BME280;47465;43.094;12.434;2023-02-11T02:18:01;100472.44;;;-2.53;68.73
61573;BME280;47465;43.094;12.434;2023-02-11T02:23:45;100483.88;;;-2.33;67.10
61573;BME280;47465;43.094;12.434;2023-02-11T02:26:39;100481.59;;;-2.27;66.57
61573;BME280;47465;43.094;12.434;2023-02-11T02:32:29;100472.28;;;-2.21;66.48
61573;BME280;47465;43.094;12.434;2023-02-11T02:35:05;100481.59;;;-2.27;66.94
61573;BME280;47465;43.094;12.434;2023-02-11T02:37:40;100458.34;;;-2.40;66.73
61573;BME280;47465;43.094;12.434;2023-02-11T02:40:13;100468.75;;;-2.40;66.75
61573;BME280;47465;43.094;12.434;2023-02-11T02:42:43;100481.94;;;-2.37;66.49
61573;BME280;47465;43.094;12.434;2023-02-11T02:45:10;100477.63;;;-2.36;68.15
61573;BME280;47465;43.094;12.434;2023-02-11T02:47:39;100482.84;;;-2.36;67.48
61573;BME280;47465;43.094;12.434;2023-02-11T02:50:07;100481.13;;;-2.36;67.12
61573;BME280;47465;43.094;12.434;2023-02-11T02:52:39;100473.56;;;-2.48;67.10
61573;BME280;47465;43.094;12.434;2023-02-11T02:55:21;100485.13;;;-2.42;67.07
61573;BME280;47465;43.094;12.434;2023-02-11T02:58:24;100468.28;;;-2.49;66.31
61573;BME280;47465;43.094;12.434;2023-02-11T03:01:00;100476.91;;;-2.50;67.43
61573;BME280;47465;43.094;12.434;2023-02-11T03:03:34;100474.94;;;-2.54;67.50
61573;BME280;47465;43.094;12.434;2023-02-11T03:06:10;100468.59;;;-2.59;67.22
61573;BME280;47465;43.094;12.434;2023-02-11T03:08:42;100460.56;;;-2.64;67.08
61573;BME280;47465;43.094;12.434;2023-02-11T03:11:11;100462.94;;;-2.69;67.60
61573;BME280;47465;43.094;12.434;2023-02-11T03:13:41;100456.66;;;-2.72;67.67
61573;BME280;47465;43.094;12.434;2023-02-11T03:16:11;100461.13;;;-2.70;67.91
61573;BME280;47465;43.094;12.434;2023-02-11T03:18:43;100458.19;;;-2.76;69.13
61573;BME280;47465;43.094;12.434;2023-02-11T03:21:11;100469.56;;;-2.74;69.51
61573;BME280;47465;43.094;12.434;2023-02-11T03:23:40;100477.34;;;-2.75;69.81
61573;BME280;47465;43.094;12.434;2023-02-11T03:26:10;100456.22;;;-2.80;69.39
61573;BME280;47465;43.094;12.434;2023-02-11T03:28:43;100452.50;;;-2.69;68.94
61573;BME280;47465;43.094;12.434;2023-02-11T03:31:15;100444.88;;;-2.82;69.44
61573;BME280;47465;43.094;12.434;2023-02-11T03:33:50;100460.00;;;-2.75;68.96
61573;BME280;47465;43.094;12.434;2023-02-11T03:36:23;100457.16;;;-2.79;68.82
61573;BME280;47465;43.094;12.434;2023-02-11T03:38:55;100448.19;;;-2.84;69.19
61573;BME280;47465;43.094;12.434;2023-02-11T03:41:23;100456.91;;;-2.84;70.08
61573;BME280;47465;43.094;12.434;2023-02-11T03:43:52;100456.81;;;-2.85;70.85
61573;BME280;47465;43.094;12.434;2023-02-11T03:46:22;100459.97;;;-2.91;71.64
61573;BME280;47465;43.094;12.434;2023-02-11T03:48:52;100460.78;;;-2.92;71.46
61573;BME280;47465;43.094;12.434;2023-02-11T03:51:21;100462.72;;;-3.04;72.06
61573;BME280;47465;43.094;12.434;2023-02-11T03:53:50;100450.84;;;-3.16;72.09
61573;BME280;47465;43.094;12.434;2023-02-11T03:56:20;100457.28;;;-3.09;71.54
61573;BME280;47465;43.094;12.434;2023-02-11T03:58:47;100449.38;;;-3.11;70.95
61573;BME280;47465;43.094;12.434;2023-02-11T04:01:13;100445.47;;;-3.19;70.92
61573;BME280;47465;43.094;12.434;2023-02-11T04:03:39;100470.13;;;-3.12;71.29
61573;BME280;47465;43.094;12.434;2023-02-11T04:06:07;100472.63;;;-3.14;71.48
61573;BME280;47465;43.094;12.434;2023-02-11T04:08:33;100474.47;;;-2.96;70.89
61573;BME280;47465;43.094;12.434;2023-02-11T04:10:59;100451.25;;;-3.08;71.08
61573;BME280;47465;43.094;12.434;2023-02-11T04:13:25;100449.72;;;-3.04;70.03
61573;BME280;47465;43.094;12.434;2023-02-11T04:15:50;100459.09;;;-2.92;68.93
61573;BME280;47465;43.094;12.434;2023-02-11T04:18:16;100458.53;;;-2.86;67.32
61573;BME280;47465;43.094;12.434;2023-02-11T04:20:42;100452.81;;;-2.79;66.58
61573;BME280;47465;43.094;12.434;2023-02-11T04:23:09;100455.44;;;-2.79;67.02
61573;BME280;47465;43.094;12.434;2023-02-11T04:25:35;100453.63;;;-2.80;66.88
61573;BME280;47465;43.094;12.434;2023-02-11T04:28:01;100450.06;;;-2.82;66.59
61573;BME280;47465;43.094;12.434;2023-02-11T04:30:27;100460.22;;;-2.70;67.09
61573;BME280;47465;43.094;12.434;2023-02-11T04:32:53;100461.28;;;-2.83;67.31
61573;BME280;47465;43.094;12.434;2023-02-11T04:35:19;100452.25;;;-2.90;67.60
61573;BME280;47465;43.094;12.434;2023-02-11T04:37:45;100450.63;;;-2.87;68.00
61573;BME280;47465;43.094;12.434;2023-02-11T04:40:12;100461.53;;;-2.78;67.62
61573;BME280;47465;43.094;12.434;2023-02-11T04:42:39;100435.09;;;-2.86;67.55
61573;BME280;47465;43.094;12.434;2023-02-11T04:45:05;100433.72;;;-2.79;67.37
61573;BME280;47465;43.094;12.434;2023-02-11T04:47:32;100444.44;;;-2.90;68.53
61573;BME280;47465;43.094;12.434;2023-02-11T04:49:58;100466.41;;;-2.84;69.41
61573;BME280;47465;43.094;12.434;2023-02-11T04:52:24;100465.28;;;-2.90;69.43
61573;BME280;47465;43.094;12.434;2023-02-11T04:54:49;100439.78;;;-3.12;69.23
61573;BME280;47465;43.094;12.434;2023-02-11T04:57:17;100451.66;;;-3.00;70.30
61573;BME280;47465;43.094;12.434;2023-02-11T04:59:43;100453.06;;;-3.07;70.84
61573;BME280;47465;43.094;12.434;2023-02-11T05:02:08;100460.41;;;-3.15;71.03
61573;BME280;47465;43.094;12.434;2023-02-11T05:04:34;100468.41;;;-3.12;70.98
61573;BME280;47465;43.094;12.434;2023-02-11T05:07:00;100478.13;;;-3.24;72.62
61573;BME280;47465;43.094;12.434;2023-02-11T05:09:26;100471.28;;;-3.38;73.26
61573;BME280;47465;43.094;12.434;2023-02-11T05:11:52;100472.91;;;-3.40;73.58
61573;BME280;47465;43.094;12.434;2023-02-11T05:14:19;100461.72;;;-3.54;74.44
61573;BME280;47465;43.094;12.434;2023-02-11T05:16:45;100474.72;;;-3.54;75.38
61573;BME280;47465;43.094;12.434;2023-02-11T05:19:11;100460.06;;;-3.68;75.70
61573;BME280;47465;43.094;12.434;2023-02-11T05:21:37;100462.56;;;-3.70;75.66
61573;BME280;47465;43.094;12.434;2023-02-11T05:24:03;100482.72;;;-3.66;75.94
61573;BME280;47465;43.094;12.434;2023-02-11T05:26:29;100460.44;;;-3.77;76.24
61573;BME280;47465;43.094;12.434;2023-02-11T05:28:55;100488.97;;;-3.62;76.16
61573;BME280;47465;43.094;12.434;2023-02-11T05:31:22;100488.31;;;-3.75;76.80
61573;BME280;47465;43.094;12.434;2023-02-11T05:33:48;100459.34;;;-3.96;77.57
61573;BME280;47465;43.094;12.434;2023-02-11T05:36:14;100483.19;;;-3.88;77.87
61573;BME280;47465;43.094;12.434;2023-02-11T05:38:41;100475.47;;;-3.86;77.73
61573;BME280;47465;43.094;12.434;2023-02-11T05:41:08;100502.03;;;-3.77;77.56
61573;BME280;47465;43.094;12.434;2023-02-11T05:43:34;100493.50;;;-3.89;79.31
61573;BME280;47465;43.094;12.434;2023-02-11T05:46:01;100498.34;;;-3.96;79.48
61573;BME280;47465;43.094;12.434;2023-02-11T05:48:29;100486.69;;;-4.02;79.87
61573;BME280;47465;43.094;12.434;2023-02-11T05:50:55;100495.22;;;-4.05;79.91
61573;BME280;47465;43.094;12.434;2023-02-11T05:53:21;100491.25;;;-4.13;79.72
61573;BME280;47465;43.094;12.434;2023-02-11T05:55:47;100507.00;;;-4.10;81.23
61573;BME280;47465;43.094;12.434;2023-02-11T05:58:13;100500.91;;;-4.10;80.41
61573;BME280;47465;43.094;12.434;2023-02-11T06:00:39;100511.69;;;-4.04;80.63
61573;BME280;47465;43.094;12.434;2023-02-11T06:03:05;100521.00;;;-4.08;79.19
61573;BME280;47465;43.094;12.434;2023-02-11T06:05:32;100508.91;;;-4.07;79.81
61573;BME280;47465;43.094;12.434;2023-02-11T06:07:58;100510.94;;;-4.17;81.29
61573;BME280;47465;43.094;12.434;2023-02-11T06:10:25;100494.03;;;-4.25;81.50
61573;BME280;47465;43.094;12.434;2023-02-11T06:12:51;100504.31;;;-4.26;81.15
61573;BME280;47465;43.094;12.434;2023-02-11T06:15:17;100513.72;;;-4.28;81.91
61573;BME280;47465;43.094;12.434;2023-02-11T06:17:43;100516.41;;;-4.27;80.98
61573;BME280;47465;43.094;12.434;2023-02-11T06:20:09;100527.97;;;-4.22;81.41
61573;BME280;47465;43.094;12.434;2023-02-11T06:22:37;100513.06;;;-4.39;81.52
61573;BME280;47465;43.094;12.434;2023-02-11T06:25:03;100538.25;;;-4.23;81.91
61573;BME280;47465;43.094;12.434;2023-02-11T06:27:29;100523.13;;;-4.30;81.76
61573;BME280;47465;43.094;12.434;2023-02-11T06:29:55;100531.56;;;-4.20;81.83
61573;BME280;47465;43.094;12.434;2023-02-11T06:32:21;100531.94;;;-4.14;80.33
61573;BME280;47465;43.094;12.434;2023-02-11T06:34:47;100536.25;;;-4.14;80.44
61573;BME280;47465;43.094;12.434;2023-02-11T06:37:13;100540.09;;;-4.07;80.25
61573;BME280;47465;43.094;12.434;2023-02-11T06:39:43;100550.47;;;-3.93;80.08
61573;BME280;47465;43.094;12.434;2023-02-11T06:42:08;100543.66;;;-3.90;80.68
61573;BME280;47465;43.094;12.434;2023-02-11T06:44:34;100534.91;;;-3.78;80.24
61573;BME280;47465;43.094;12.434;2023-02-11T06:47:00;100521.38;;;-3.72;79.45
61573;BME280;47465;43.094;12.434;2023-02-11T06:49:26;100547.16;;;-3.60;78.99
61573;BME280;47465;43.094;12.434;2023-02-11T06:51:52;100539.56;;;-3.57;79.08
61573;BME280;47465;43.094;12.434;2023-02-11T06:54:18;100557.13;;;-3.38;78.86
61573;BME280;47465;43.094;12.434;2023-02-11T06:56:46;100534.25;;;-3.44;77.93
61573;BME280;47465;43.094;12.434;2023-02-11T06:59:14;100549.38;;;-3.37;77.66
61573;BME280;47465;43.094;12.434;2023-02-11T07:01:40;100536.56;;;-3.34;78.06
61573;BME280;47465;43.094;12.434;2023-02-11T07:04:07;100541.66;;;-3.20;77.55
61573;BME280;47465;43.094;12.434;2023-02-11T07:06:33;100564.41;;;-3.01;75.73
61573;BME280;47465;43.094;12.434;2023-02-11T07:08:59;100560.13;;;-2.84;74.37
61573;BME280;47465;43.094;12.434;2023-02-11T07:11:26;100559.91;;;-2.73;73.94
61573;BME280;47465;43.094;12.434;2023-02-11T07:13:58;100565.38;;;-2.52;73.38
61573;BME280;47465;43.094;12.434;2023-02-11T07:16:24;100563.09;;;-2.45;73.66
61573;BME280;47465;43.094;12.434;2023-02-11T07:18:50;100543.59;;;-2.54;73.83
61573;BME280;47465;43.094;12.434;2023-02-11T07:21:18;100566.94;;;-2.39;74.60
61573;BME280;47465;43.094;12.434;2023-02-11T07:23:45;100565.41;;;-2.35;74.76
61573;BME280;47465;43.094;12.434;2023-02-11T07:26:14;100582.56;;;-2.22;74.69
61573;BME280;47465;43.094;12.434;2023-02-11T07:28:41;100575.66;;;-2.22;74.65
61573;BME280;47465;43.094;12.434;2023-02-11T07:31:10;100572.41;;;-2.18;74.62
61573;BME280;47465;43.094;12.434;2023-02-11T07:33:36;100564.91;;;-2.12;74.29
61573;BME280;47465;43.094;12.434;2023-02-11T07:36:03;100584.69;;;-1.99;73.84
61573;BME280;47465;43.094;12.434;2023-02-11T07:38:30;100586.00;;;-1.91;73.42
61573;BME280;47465;43.094;12.434;2023-02-11T07:40:59;100566.16;;;-1.71;70.25
61573;BME280;47465;43.094;12.434;2023-02-11T07:43:25;100569.22;;;-1.43;69.03
61573;BME280;47465;43.094;12.434;2023-02-11T07:45:50;100596.88;;;-1.13;68.46
61573;BME280;47465;43.094;12.434;2023-02-11T07:48:18;100566.03;;;-1.20;67.49
61573;BME280;47465;43.094;12.434;2023-02-11T07:50:44;100573.81;;;-1.04;66.62
61573;BME280;47465;43.094;12.434;2023-02-11T07:53:10;100567.22;;;-0.77;64.76
61573;BME280;47465;43.094;12.434;2023-02-11T07:55:36;100569.25;;;-0.52;63.56
61573;BME280;47465;43.094;12.434;2023-02-11T07:58:01;100578.34;;;-0.25;61.23
61573;BME280;47465;43.094;12.434;2023-02-11T08:00:27;100553.66;;;-0.31;61.54
61573;BME280;47465;43.094;12.434;2023-02-11T08:02:55;100566.63;;;-0.15;61.55
61573;BME280;47465;43.094;12.434;2023-02-11T08:05:23;100554.28;;;-0.17;61.39
61573;BME280;47465;43.094;12.434;2023-02-11T08:07:49;100561.41;;;0.06;60.36
61573;BME280;47465;43.094;12.434;2023-02-11T08:10:15;100572.97;;;0.31;58.48
61573;BME280;47465;43.094;12.434;2023-02-11T08:12:41;100562.97;;;0.42;58.32
61573;BME280;47465;43.094;12.434;2023-02-11T08:15:08;100540.28;;;0.42;58.50
61573;BME280;47465;43.094;12.434;2023-02-11T08:17:34;100545.69;;;0.26;58.78
61573;BME280;47465;43.094;12.434;2023-02-11T08:20:00;100568.88;;;0.58;58.90
61573;BME280;47465;43.094;12.434;2023-02-11T08:22:30;100565.63;;;0.85;56.44
61573;BME280;47465;43.094;12.434;2023-02-11T08:24:55;100580.38;;;1.27;54.56
61573;BME280;47465;43.094;12.434;2023-02-11T08:27:23;100555.66;;;1.20;55.02
61573;BME280;47465;43.094;12.434;2023-02-11T08:29:49;100561.75;;;1.41;54.59
61573;BME280;47465;43.094;12.434;2023-02-11T08:32:15;100575.59;;;1.61;54.47
61573;BME280;47465;43.094;12.434;2023-02-11T08:34:40;100559.97;;;1.64;55.55
61573;BME280;47465;43.094;12.434;2023-02-11T08:37:07;100553.59;;;1.80;56.09
61573;BME280;47465;43.094;12.434;2023-02-11T08:39:34;100543.19;;;1.83;54.60
61573;BME280;47465;43.094;12.434;2023-02-11T08:42:00;100549.06;;;2.00;54.16
61573;BME280;47465;43.094;12.434;2023-02-11T08:44:26;100561.53;;;2.06;55.41
61573;BME280;47465;43.094;12.434;2023-02-11T08:46:52;100570.84;;;1.98;56.64
61573;BME280;47465;43.094;12.434;2023-02-11T08:49:18;100572.34;;;1.91;55.90
61573;BME280;47465;43.094;12.434;2023-02-11T08:51:45;100569.56;;;1.87;55.73
61573;BME280;47465;43.094;12.434;2023-02-11T08:54:11;100576.66;;;2.13;56.03
61573;BME280;47465;43.094;12.434;2023-02-11T08:56:39;100577.41;;;2.35;55.85
61573;BME280;47465;43.094;12.434;2023-02-11T08:59:05;100546.94;;;2.40;55.30
61573;BME280;47465;43.094;12.434;2023-02-11T09:01:32;100571.53;;;2.67;54.84
61573;BME280;47465;43.094;12.434;2023-02-11T09:03:58;100529.59;;;2.71;54.42
61573;BME280;47465;43.094;12.434;2023-02-11T09:06:25;100569.97;;;3.01;53.95
61573;BME280;47465;43.094;12.434;2023-02-11T09:08:52;100536.81;;;3.05;53.52
61573;BME280;47465;43.094;12.434;2023-02-11T09:11:21;100541.75;;;3.23;53.04
61573;BME280;47465;43.094;12.434;2023-02-11T09:13:48;100555.53;;;3.43;51.21
61573;BME280;47465;43.094;12.434;2023-02-11T09:16:16;100559.44;;;3.57;52.52
61573;BME280;47465;43.094;12.434;2023-02-11T09:18:42;100536.06;;;3.38;52.32
61573;BME280;47465;43.094;12.434;2023-02-11T09:21:10;100534.75;;;3.52;52.19
61573;BME280;47465;43.094;12.434;2023-02-11T09:23:36;100533.41;;;3.66;51.52
61573;BME280;47465;43.094;12.434;2023-02-11T09:26:05;100517.78;;;3.71;50.72
61573;BME280;47465;43.094;12.434;2023-02-11T09:28:34;100548.75;;;3.81;50.67
61573;BME280;47465;43.094;12.434;2023-02-11T09:31:05;100526.69;;;3.76;51.04
61573;BME280;47465;43.094;12.434;2023-02-11T09:33:31;100543.03;;;3.66;50.57
61573;BME280;47465;43.094;12.434;2023-02-11T09:35:59;100541.16;;;3.62;51.52
61573;BME280;47465;43.094;12.434;2023-02-11T09:38:25;100554.78;;;3.77;51.59
61573;BME280;47465;43.094;12.434;2023-02-11T09:40:51;100535.56;;;3.49;51.53
61573;BME280;47465;43.094;12.434;2023-02-11T09:43:19;100537.75;;;3.64;52.18
61573;BME280;47465;43.094;12.434;2023-02-11T09:45:45;100535.88;;;3.90;51.38
61573;BME280;47465;43.094;12.434;2023-02-11T09:48:15;100544.28;;;4.09;50.45
61573;BME280;47465;43.094;12.434;2023-02-11T09:50:44;100547.53;;;4.32;49.89
61573;BME280;47465;43.094;12.434;2023-02-11T09:53:15;100549.72;;;4.48;49.97
61573;BME280;47465;43.094;12.434;2023-02-11T09:55:46;100550.03;;;4.61;49.41
61573;BME280;47465;43.094;12.434;2023-02-11T09:58:16;100542.25;;;4.65;49.37
61573;BME280;47465;43.094;12.434;2023-02-11T10:01:14;100529.50;;;4.47;49.96
61573;BME280;47465;43.094;12.434;2023-02-11T10:03:59;100548.59;;;4.39;49.59
61573;BME280;47465;43.094;12.434;2023-02-11T10:06:37;100534.25;;;4.27;50.11
61573;BME280;47465;43.094;12.434;2023-02-11T10:09:15;100540.56;;;4.34;50.41
61573;BME280;47465;43.094;12.434;2023-02-11T10:11:51;100548.50;;;4.69;49.78
61573;BME280;47465;43.094;12.434;2023-02-11T10:14:42;100543.75;;;4.90;48.79
61573;BME280;47465;43.094;12.434;2023-02-11T10:17:14;100559.19;;;5.11;48.17
61573;BME280;47465;43.094;12.434;2023-02-11T10:19:58;100542.00;;;5.27;48.08
61573;BME280;47465;43.094;12.434;2023-02-11T10:22:30;100543.94;;;5.38;47.19
61573;BME280;47465;43.094;12.434;2023-02-11T10:25:22;100537.25;;;5.52;46.96
61573;BME280;47465;43.094;12.434;2023-02-11T10:27:49;100550.63;;;5.61;46.64
61573;BME280;47465;43.094;12.434;2023-02-11T10:30:21;100528.50;;;5.54;46.25
61573;BME280;47465;43.094;12.434;2023-02-11T10:32:51;100529.59;;;5.64;45.05
61573;BME280;47465;43.094;12.434;2023-02-11T10:35:22;100543.34;;;5.90;45.48
61573;BME280;47465;43.094;12.434;2023-02-11T10:37:48;100535.72;;;6.04;45.03
61573;BME280;47465;43.094;12.434;2023-02-11T10:40:16;100531.41;;;6.08;45.20
61573;BME280;47465;43.094;12.434;2023-02-11T10:42:45;100551.19;;;6.30;45.09
61573;BME280;47465;43.094;12.434;2023-02-11T10:45:18;100540.72;;;6.37;44.77
61573;BME280;47465;43.094;12.434;2023-02-11T10:47:46;100539.94;;;6.42;44.74
61573;BME280;47465;43.094;12.434;2023-02-11T10:50:26;100523.19;;;6.41;45.13
61573;BME280;47465;43.094;12.434;2023-02-11T10:52:52;100515.03;;;6.29;44.92
61573;BME280;47465;43.094;12.434;2023-02-11T10:55:35;100535.13;;;6.19;45.19
61573;BME280;47465;43.094;12.434;2023-02-11T10:58:02;100502.38;;;6.11;44.86
61573;BME280;47465;43.094;12.434;2023-02-11T11:00:33;100500.66;;;6.13;45.25
61573;BME280;47465;43.094;12.434;2023-02-11T11:03:03;100499.75;;;6.11;45.64
61573;BME280;47465;43.094;12.434;2023-02-11T11:05:33;100493.69;;;6.16;45.47
61573;BME280;47465;43.094;12.434;2023-02-11T11:08:01;100496.53;;;6.27;45.80
61573;BME280;47465;43.094;12.434;2023-02-11T11:10:33;100486.81;;;6.26;45.53
61573;BME280;47465;43.094;12.434;2023-02-11T11:13:00;100474.41;;;6.21;45.99
61573;BME280;47465;43.094;12.434;2023-02-11T11:15:28;100477.16;;;6.28;45.50
61573;BME280;47465;43.094;12.434;2023-02-11T11:18:11;100480.44;;;6.15;45.69
61573;BME280;47465;43.094;12.434;2023-02-11T11:20:43;100481.50;;;6.23;45.80
61573;BME280;47465;43.094;12.434;2023-02-11T11:23:17;100487.97;;;6.41;45.68
61573;BME280;47465;43.094;12.434;2023-02-11T11:26:00;100468.53;;;6.38;45.94
61573;BME280;47465;43.094;12.434;2023-02-11T11:28:30;100463.28;;;6.42;45.86
61573;BME280;47465;43.094;12.434;2023-02-11T11:30:58;100449.28;;;6.44;46.16
61573;BME280;47465;43.094;12.434;2023-02-11T11:33:27;100445.13;;;6.60;45.69
61573;BME280;47465;43.094;12.434;2023-02-11T11:36:04;100450.53;;;6.69;45.42
61573;BME280;47465;43.094;12.434;2023-02-11T11:38:31;100451.56;;;6.77;45.25
61573;BME280;47465;43.094;12.434;2023-02-11T11:41:16;100463.19;;;6.89;45.02
61573;BME280;47465;43.094;12.434;2023-02-11T11:43:54;100446.28;;;6.81;44.25
61573;BME280;47465;43.094;12.434;2023-02-11T11:46:23;100428.69;;;6.83;44.02
61573;BME280;47465;43.094;12.434;2023-02-11T11:48:50;100433.25;;;6.90;43.58
61573;BME280;47465;43.094;12.434;2023-02-11T11:51:20;100453.69;;;7.03;43.22
61573;BME280;47465;43.094;12.434;2023-02-11T11:53:53;100438.75;;;7.07;43.01
61573;BME280;47465;43.094;12.434;2023-02-11T11:56:22;100427.28;;;7.06;43.40
61573;BME280;47465;43.094;12.434;2023-02-11T11:58:49;100441.59;;;7.20;42.45
61573;BME280;47465;43.094;12.434;2023-02-11T12:01:24;100434.47;;;7.16;42.16
61573;BME280;47465;43.094;12.434;2023-02-11T12:04:18;100438.13;;;7.26;41.85
61573;BME280;47465;43.094;12.434;2023-02-11T12:07:10;100436.41;;;7.30;41.89
61573;BME280;47465;43.094;12.434;2023-02-11T12:10:01;100416.91;;;7.22;42.49
61573;BME280;47465;43.094;12.434;2023-02-11T12:12:36;100417.03;;;7.31;41.80
61573;BME280;47465;43.094;12.434;2023-02-11T12:15:25;100423.44;;;7.48;42.17
61573;BME280;47465;43.094;12.434;2023-02-11T12:18:07;100427.03;;;7.55;41.95
61573;BME280;47465;43.094;12.434;2023-02-11T12:20:47;100420.88;;;7.57;41.13
61573;BME280;47465;43.094;12.434;2023-02-11T12:23:30;100409.47;;;7.65;40.44
61573;BME280;47465;43.094;12.434;2023-02-11T12:26:12;100417.47;;;7.69;40.12
61573;BME280;47465;43.094;12.434;2023-02-11T12:28:48;100420.19;;;7.75;40.16
61573;BME280;47465;43.094;12.434;2023-02-11T12:31:26;100398.06;;;7.69;40.27
61573;BME280;47465;43.094;12.434;2023-02-11T12:34:06;100400.78;;;7.75;40.43
61573;BME280;47465;43.094;12.434;2023-02-11T12:36:51;100390.25;;;7.82;39.51
61573;BME280;47465;43.094;12.434;2023-02-11T12:39:32;100384.22;;;7.97;38.90
61573;BME280;47465;43.094;12.434;2023-02-11T12:42:16;100384.28;;;8.05;38.65
61573;BME280;47465;43.094;12.434;2023-02-11T12:45:28;100386.13;;;8.12;38.53
61573;BME280;47465;43.094;12.434;2023-02-11T12:48:09;100396.84;;;8.28;37.40
61573;BME280;47465;43.094;12.434;2023-02-11T12:50:44;100381.78;;;8.23;36.60
61573;BME280;47465;43.094;12.434;2023-02-11T12:56:13;100375.59;;;8.20;36.17
61573;BME280;47465;43.094;12.434;2023-02-11T12:58:41;100361.44;;;8.18;36.82
61573;BME280;47465;43.094;12.434;2023-02-11T13:01:15;100360.59;;;8.22;36.39
61573;BME280;47465;43.094;12.434;2023-02-11T13:03:44;100356.19;;;8.24;35.07
61573;BME280;47465;43.094;12.434;2023-02-11T13:06:13;100344.69;;;8.22;35.89